sensor_id;sensor_type;location;lat;lon;timestamp;temperature;humidity
19330;DHT22;9799;48.214;16.388;2023-12-20T00:00:57;3.30;99.90
19330;DHT22;9799;48.214;16.388;2023-12-20T00:04:20;3.20;99.90
19330;DHT22;9799;48.214;16.388;2023-12-20T00:07:41;3.30;99.90
19330;DHT22;9799;48.214;16.388;2023-12-20T00:11:03;3.20;99.90
19330;DHT22;9799;48.214;16.388;2023-12-20T00:14:24;3.10;99.90
19330;DHT22;9799;48.214;16.388;2023-12-20T00:17:45;2.60;99.90
19330;DHT22;9799;48.214;16.388;2023-12-20T00:21:08;2.10;99.90
19330;DHT22;9799;48.214;16.388;2023-12-20T00:24:29;1.80;99.90
19330;DHT22;9799;48.214;16.388;2023-12-20T00:27:50;1.90;99.90
19330;DHT22;9799;48.214;16.388;2023-12-20T00:31:12;1.90;99.90
19330;DHT22;9799;48.214;16.388;2023-12-20T00:34:33;1.90;99.90
19330;DHT22;9799;48.214;16.388;2023-12-20T00:37:55;1.80;99.90
19330;DHT22;9799;48.214;16.388;2023-12-20T00:41:17;1.80;99.90
19330;DHT22;9799;48.214;16.388;2023-12-20T00:44:38;1.70;99.90
19330;DHT22;9799;48.214;16.388;2023-12-20T00:47:59;1.60;99.90
19330;DHT22;9799;48.214;16.388;2023-12-20T00:51:20;1.60;99.90
19330;DHT22;9799;48.214;16.388;2023-12-20T00:54:43;1.60;99.90
19330;DHT22;9799;48.214;16.388;2023-12-20T00:58:05;1.70;99.90
19330;DHT22;9799;48.214;16.388;2023-12-20T01:01:26;1.80;99.90
19330;DHT22;9799;48.214;16.388;2023-12-20T01:04:47;1.60;99.90
19330;DHT22;9799;48.214;16.388;2023-12-20T01:08:08;1.50;99.90
19330;DHT22;9799;48.214;16.388;2023-12-20T01:11:31;1.50;99.90
19330;DHT22;9799;48.214;16.388;2023-12-20T01:14:52;1.60;99.90
19330;DHT22;9799;48.214;16.388;2023-12-20T01:18:13;1.60;99.90
19330;DHT22;9799;48.214;16.388;2023-12-20T01:21:35;1.50;99.90
19330;DHT22;9799;48.214;16.388;2023-12-20T01:24:56;1.40;99.90
19330;DHT22;9799;48.214;16.388;2023-12-20T01:28:19;1.30;99.90
19330;DHT22;9799;48.214;16.388;2023-12-20T01:31:40;1.20;99.90
19330;DHT22;9799;48.214;16.388;2023-12-20T01:35:01;1.20;99.90
19330;DHT22;9799;48.214;16.388;2023-12-20T01:38:22;1.30;99.90
19330;DHT22;9799;48.214;16.388;2023-12-20T01:41:44;1.10;99.90
19330;DHT22;9799;48.214;16.388;2023-12-20T01:45:08;1.10;99.90
19330;DHT22;9799;48.214;16.388;2023-12-20T01:48:29;0.90;99.90
19330;DHT22;9799;48.214;16.388;2023-12-20T01:51:59;0.90;99.90
19330;DHT22;9799;48.214;16.388;2023-12-20T01:55:23;0.80;99.90
19330;DHT22;9799;48.214;16.388;2023-12-20T01:58:45;0.70;99.90
19330;DHT22;9799;48.214;16.388;2023-12-20T02:02:08;0.80;99.90
19330;DHT22;9799;48.214;16.388;2023-12-20T02:05:34;0.80;99.90
19330;DHT22;9799;48.214;16.388;2023-12-20T02:08:55;1.00;99.90
19330;DHT22;9799;48.214;16.388;2023-12-20T02:12:17;1.00;99.90
19330;DHT22;9799;48.214;16.388;2023-12-20T02:15:39;0.90;99.90
19330;DHT22;9799;48.214;16.388;2023-12-20T02:19:04;1.00;99.90
19330;DHT22;9799;48.214;16.388;2023-12-20T02:22:29;0.90;99.90
19330;DHT22;9799;48.214;16.388;2023-12-20T02:25:50;0.90;99.90
19330;DHT22;9799;48.214;16.388;2023-12-20T02:29:12;0.80;99.90
19330;DHT22;9799;48.214;16.388;2023-12-20T02:32:33;0.80;99.90
19330;DHT22;9799;48.214;16.388;2023-12-20T02:35:54;0.80;99.90
19330;DHT22;9799;48.214;16.388;2023-12-20T02:39:18;0.80;99.90
19330;DHT22;9799;48.214;16.388;2023-12-20T02:42:40;0.70;99.90
19330;DHT22;9799;48.214;16.388;2023-12-20T02:46:01;0.90;99.90
19330;DHT22;9799;48.214;16.388;2023-12-20T02:49:22;1.00;99.90
19330;DHT22;9799;48.214;16.388;2023-12-20T02:52:44;1.10;99.90
19330;DHT22;9799;48.214;16.388;2023-12-20T02:56:07;1.30;99.90
19330;DHT22;9799;48.214;16.388;2023-12-20T02:59:29;1.40;99.90
19330;DHT22;9799;48.214;16.388;2023-12-20T03:02:50;1.20;99.90
19330;DHT22;9799;48.214;16.388;2023-12-20T03:06:11;1.20;99.90
19330;DHT22;9799;48.214;16.388;2023-12-20T03:09:32;1.30;99.90
19330;DHT22;9799;48.214;16.388;2023-12-20T03:12:55;1.50;99.90
19330;DHT22;9799;48.214;16.388;2023-12-20T03:16:16;1.60;99.90
19330;DHT22;9799;48.214;16.388;2023-12-20T03:19:37;1.50;99.90
19330;DHT22;9799;48.214;16.388;2023-12-20T03:22:59;1.70;99.90
19330;DHT22;9799;48.214;16.388;2023-12-20T03:26:20;1.70;99.90
19330;DHT22;9799;48.214;16.388;2023-12-20T03:29:43;1.70;99.90
19330;DHT22;9799;48.214;16.388;2023-12-20T03:33:04;1.90;99.90
19330;DHT22;9799;48.214;16.388;2023-12-20T03:36:27;2.00;99.90
19330;DHT22;9799;48.214;16.388;2023-12-20T03:39:48;1.90;99.90
19330;DHT22;9799;48.214;16.388;2023-12-20T03:43:10;1.90;99.90
19330;DHT22;9799;48.214;16.388;2023-12-20T03:46:32;1.70;99.90
19330;DHT22;9799;48.214;16.388;2023-12-20T03:49:53;1.50;99.90
19330;DHT22;9799;48.214;16.388;2023-12-20T03:53:15;1.20;99.90
19330;DHT22;9799;48.214;16.388;2023-12-20T03:56:36;1.00;99.90
19330;DHT22;9799;48.214;16.388;2023-12-20T03:59:57;0.60;99.90
19330;DHT22;9799;48.214;16.388;2023-12-20T04:03:20;0.60;99.90
19330;DHT22;9799;48.214;16.388;2023-12-20T04:06:42;0.40;99.90
19330;DHT22;9799;48.214;16.388;2023-12-20T04:10:04;0.30;99.90
19330;DHT22;9799;48.214;16.388;2023-12-20T04:13:25;0.40;99.90
19330;DHT22;9799;48.214;16.388;2023-12-20T04:16:46;0.60;99.90
19330;DHT22;9799;48.214;16.388;2023-12-20T04:20:10;0.60;99.90
19330;DHT22;9799;48.214;16.388;2023-12-20T04:23:31;0.60;99.90
19330;DHT22;9799;48.214;16.388;2023-12-20T04:26:52;0.50;99.90
19330;DHT22;9799;48.214;16.388;2023-12-20T04:30:14;0.40;99.90
19330;DHT22;9799;48.214;16.388;2023-12-20T04:33:35;0.70;99.90
19330;DHT22;9799;48.214;16.388;2023-12-20T04:36:58;0.90;99.90
19330;DHT22;9799;48.214;16.388;2023-12-20T04:40:19;0.70;99.90
19330;DHT22;9799;48.214;16.388;2023-12-20T04:43:40;0.50;99.90
19330;DHT22;9799;48.214;16.388;2023-12-20T04:47:02;0.60;99.90
19330;DHT22;9799;48.214;16.388;2023-12-20T04:50:23;0.60;99.90
19330;DHT22;9799;48.214;16.388;2023-12-20T04:53:46;0.60;99.90
19330;DHT22;9799;48.214;16.388;2023-12-20T04:57:07;0.50;99.90
19330;DHT22;9799;48.214;16.388;2023-12-20T05:00:28;0.50;99.90
19330;DHT22;9799;48.214;16.388;2023-12-20T05:03:50;0.40;99.90
19330;DHT22;9799;48.214;16.388;2023-12-20T05:07:11;0.50;99.90
19330;DHT22;9799;48.214;16.388;2023-12-20T05:10:34;0.60;99.90
19330;DHT22;9799;48.214;16.388;2023-12-20T05:13:56;0.60;99.90
19330;DHT22;9799;48.214;16.388;2023-12-20T05:17:17;0.70;99.90
19330;DHT22;9799;48.214;16.388;2023-12-20T05:20:40;0.80;99.90
19330;DHT22;9799;48.214;16.388;2023-12-20T05:24:01;0.80;99.90
19330;DHT22;9799;48.214;16.388;2023-12-20T05:27:24;0.70;99.90
19330;DHT22;9799;48.214;16.388;2023-12-20T05:30:45;0.70;99.90
19330;DHT22;9799;48.214;16.388;2023-12-20T05:34:07;0.40;99.90
19330;DHT22;9799;48.214;16.388;2023-12-20T05:37:28;0.40;99.90
19330;DHT22;9799;48.214;16.388;2023-12-20T05:40:49;0.60;99.90
19330;DHT22;9799;48.214;16.388;2023-12-20T05:44:12;1.30;99.90
19330;DHT22;9799;48.214;16.388;2023-12-20T05:47:33;1.90;99.90
19330;DHT22;9799;48.214;16.388;2023-12-20T05:50:57;3.10;99.90
19330;DHT22;9799;48.214;16.388;2023-12-20T05:54:19;3.10;99.90
19330;DHT22;9799;48.214;16.388;2023-12-20T05:57:40;3.20;99.90
19330;DHT22;9799;48.214;16.388;2023-12-20T06:01:05;3.90;99.90
19330;DHT22;9799;48.214;16.388;2023-12-20T06:04:34;3.90;99.90
19330;DHT22;9799;48.214;16.388;2023-12-20T06:07:55;3.80;99.90
19330;DHT22;9799;48.214;16.388;2023-12-20T06:11:17;3.70;99.90
19330;DHT22;9799;48.214;16.388;2023-12-20T06:14:38;3.60;99.90
19330;DHT22;9799;48.214;16.388;2023-12-20T06:18:01;3.50;99.90
19330;DHT22;9799;48.214;16.388;2023-12-20T06:21:22;3.50;99.90
19330;DHT22;9799;48.214;16.388;2023-12-20T06:24:43;3.80;99.90
19330;DHT22;9799;48.214;16.388;2023-12-20T06:28:05;4.40;99.90
19330;DHT22;9799;48.214;16.388;2023-12-20T06:31:26;5.20;99.90
19330;DHT22;9799;48.214;16.388;2023-12-20T06:34:49;5.50;99.90
19330;DHT22;9799;48.214;16.388;2023-12-20T06:38:10;6.10;99.90
19330;DHT22;9799;48.214;16.388;2023-12-20T06:41:32;6.30;99.90
19330;DHT22;9799;48.214;16.388;2023-12-20T06:44:53;6.50;99.90
19330;DHT22;9799;48.214;16.388;2023-12-20T06:48:14;6.60;99.90
19330;DHT22;9799;48.214;16.388;2023-12-20T06:51:37;6.90;99.90
19330;DHT22;9799;48.214;16.388;2023-12-20T06:54:58;7.30;99.90
19330;DHT22;9799;48.214;16.388;2023-12-20T06:58:19;7.50;99.90
19330;DHT22;9799;48.214;16.388;2023-12-20T07:01:41;7.70;99.90
19330;DHT22;9799;48.214;16.388;2023-12-20T07:05:02;7.70;99.90
19330;DHT22;9799;48.214;16.388;2023-12-20T07:08:25;7.90;99.90
19330;DHT22;9799;48.214;16.388;2023-12-20T07:11:47;8.00;99.90
19330;DHT22;9799;48.214;16.388;2023-12-20T07:15:09;8.00;99.90
19330;DHT22;9799;48.214;16.388;2023-12-20T07:18:30;8.00;99.90
19330;DHT22;9799;48.214;16.388;2023-12-20T07:21:52;8.00;99.90
19330;DHT22;9799;48.214;16.388;2023-12-20T07:25:14;8.10;99.90
19330;DHT22;9799;48.214;16.388;2023-12-20T07:28:36;8.20;99.90
19330;DHT22;9799;48.214;16.388;2023-12-20T07:31:57;8.20;99.90
19330;DHT22;9799;48.214;16.388;2023-12-20T07:35:18;8.10;99.90
19330;DHT22;9799;48.214;16.388;2023-12-20T07:38:40;8.00;99.90
19330;DHT22;9799;48.214;16.388;2023-12-20T07:42:03;7.90;99.90
19330;DHT22;9799;48.214;16.388;2023-12-20T07:45:24;7.80;99.90
19330;DHT22;9799;48.214;16.388;2023-12-20T07:48:46;7.80;99.90
19330;DHT22;9799;48.214;16.388;2023-12-20T07:52:07;7.80;99.90
19330;DHT22;9799;48.214;16.388;2023-12-20T07:55:31;7.80;99.90
19330;DHT22;9799;48.214;16.388;2023-12-20T07:58:54;7.80;99.90
19330;DHT22;9799;48.214;16.388;2023-12-20T08:02:15;7.70;99.90
19330;DHT22;9799;48.214;16.388;2023-12-20T08:05:37;7.70;99.90
19330;DHT22;9799;48.214;16.388;2023-12-20T08:09:00;7.70;99.90
19330;DHT22;9799;48.214;16.388;2023-12-20T08:12:21;7.80;99.90
19330;DHT22;9799;48.214;16.388;2023-12-20T08:15:44;7.90;99.90
19330;DHT22;9799;48.214;16.388;2023-12-20T08:19:06;8.00;99.90
19330;DHT22;9799;48.214;16.388;2023-12-20T08:22:27;8.00;99.90
19330;DHT22;9799;48.214;16.388;2023-12-20T08:25:49;8.10;99.90
19330;DHT22;9799;48.214;16.388;2023-12-20T08:29:10;8.10;99.90
19330;DHT22;9799;48.214;16.388;2023-12-20T08:32:34;8.10;99.90
19330;DHT22;9799;48.214;16.388;2023-12-20T08:35:56;8.10;99.90
19330;DHT22;9799;48.214;16.388;2023-12-20T08:39:17;8.20;99.90
19330;DHT22;9799;48.214;16.388;2023-12-20T08:42:39;8.10;99.90
19330;DHT22;9799;48.214;16.388;2023-12-20T08:46:00;8.10;99.90
19330;DHT22;9799;48.214;16.388;2023-12-20T08:49:23;8.10;99.90
19330;DHT22;9799;48.214;16.388;2023-12-20T08:52:45;8.10;99.90
19330;DHT22;9799;48.214;16.388;2023-12-20T08:56:07;8.10;99.90
19330;DHT22;9799;48.214;16.388;2023-12-20T08:59:30;8.10;99.90
19330;DHT22;9799;48.214;16.388;2023-12-20T09:02:51;8.10;99.90
19330;DHT22;9799;48.214;16.388;2023-12-20T09:06:14;8.10;99.90
19330;DHT22;9799;48.214;16.388;2023-12-20T09:09:35;8.10;99.90
19330;DHT22;9799;48.214;16.388;2023-12-20T09:12:56;8.00;99.90
19330;DHT22;9799;48.214;16.388;2023-12-20T09:16:18;8.00;99.90
19330;DHT22;9799;48.214;16.388;2023-12-20T09:19:39;7.90;99.90
19330;DHT22;9799;48.214;16.388;2023-12-20T09:23:02;7.90;99.90
19330;DHT22;9799;48.214;16.388;2023-12-20T09:26:24;7.80;99.90
19330;DHT22;9799;48.214;16.388;2023-12-20T09:29:45;7.80;99.90
19330;DHT22;9799;48.214;16.388;2023-12-20T09:33:08;7.70;99.90
19330;DHT22;9799;48.214;16.388;2023-12-20T09:36:29;7.80;99.90
19330;DHT22;9799;48.214;16.388;2023-12-20T09:39:56;7.80;99.90
19330;DHT22;9799;48.214;16.388;2023-12-20T09:43:19;7.80;99.90
19330;DHT22;9799;48.214;16.388;2023-12-20T09:46:44;7.70;99.90
19330;DHT22;9799;48.214;16.388;2023-12-20T09:50:06;7.60;99.90
19330;DHT22;9799;48.214;16.388;2023-12-20T09:53:29;7.60;99.90
19330;DHT22;9799;48.214;16.388;2023-12-20T09:56:53;7.50;99.90
19330;DHT22;9799;48.214;16.388;2023-12-20T10:00:32;7.40;99.90
19330;DHT22;9799;48.214;16.388;2023-12-20T10:04:08;7.30;99.90
19330;DHT22;9799;48.214;16.388;2023-12-20T10:07:32;7.30;99.90
19330;DHT22;9799;48.214;16.388;2023-12-20T10:10:53;7.30;99.90
19330;DHT22;9799;48.214;16.388;2023-12-20T10:14:21;7.20;99.90
19330;DHT22;9799;48.214;16.388;2023-12-20T10:17:44;7.10;99.90
19330;DHT22;9799;48.214;16.388;2023-12-20T10:21:06;7.20;99.90
19330;DHT22;9799;48.214;16.388;2023-12-20T10:24:28;7.10;99.90
19330;DHT22;9799;48.214;16.388;2023-12-20T10:27:57;7.10;99.90
19330;DHT22;9799;48.214;16.388;2023-12-20T10:31:31;7.10;99.90
19330;DHT22;9799;48.214;16.388;2023-12-20T10:34:54;7.10;99.90
19330;DHT22;9799;48.214;16.388;2023-12-20T10:38:15;7.20;99.90
19330;DHT22;9799;48.214;16.388;2023-12-20T10:41:37;7.20;99.90
19330;DHT22;9799;48.214;16.388;2023-12-20T10:45:01;7.20;99.90
19330;DHT22;9799;48.214;16.388;2023-12-20T10:48:24;7.20;99.90
19330;DHT22;9799;48.214;16.388;2023-12-20T10:51:49;7.10;99.90
19330;DHT22;9799;48.214;16.388;2023-12-20T10:55:11;7.20;99.90
19330;DHT22;9799;48.214;16.388;2023-12-20T10:58:33;7.20;99.90
19330;DHT22;9799;48.214;16.388;2023-12-20T11:01:57;7.20;99.90
19330;DHT22;9799;48.214;16.388;2023-12-20T11:05:31;7.20;99.90
19330;DHT22;9799;48.214;16.388;2023-12-20T11:09:00;7.30;99.90
19330;DHT22;9799;48.214;16.388;2023-12-20T11:12:36;7.30;99.90
19330;DHT22;9799;48.214;16.388;2023-12-20T11:15:58;7.40;99.90
19330;DHT22;9799;48.214;16.388;2023-12-20T11:19:20;7.40;99.90
19330;DHT22;9799;48.214;16.388;2023-12-20T11:22:54;7.40;99.90
19330;DHT22;9799;48.214;16.388;2023-12-20T11:26:16;7.40;99.90
19330;DHT22;9799;48.214;16.388;2023-12-20T11:29:38;7.40;99.90
19330;DHT22;9799;48.214;16.388;2023-12-20T11:32:59;7.50;99.90
19330;DHT22;9799;48.214;16.388;2023-12-20T11:36:25;7.40;99.90
19330;DHT22;9799;48.214;16.388;2023-12-20T11:39:55;7.50;99.90
19330;DHT22;9799;48.214;16.388;2023-12-20T11:43:30;7.60;99.90
19330;DHT22;9799;48.214;16.388;2023-12-20T11:46:52;7.60;99.90
19330;DHT22;9799;48.214;16.388;2023-12-20T11:50:14;7.60;99.90
19330;DHT22;9799;48.214;16.388;2023-12-20T11:53:35;7.60;99.90
19330;DHT22;9799;48.214;16.388;2023-12-20T11:56:58;7.60;99.90
19330;DHT22;9799;48.214;16.388;2023-12-20T12:00:19;7.70;99.90
19330;DHT22;9799;48.214;16.388;2023-12-20T12:03:41;7.70;99.90
19330;DHT22;9799;48.214;16.388;2023-12-20T12:07:03;7.80;99.90
19330;DHT22;9799;48.214;16.388;2023-12-20T12:10:26;7.80;99.90
19330;DHT22;9799;48.214;16.388;2023-12-20T12:13:49;7.90;99.90
19330;DHT22;9799;48.214;16.388;2023-12-20T12:17:10;7.90;99.90
19330;DHT22;9799;48.214;16.388;2023-12-20T12:20:32;7.90;99.90
19330;DHT22;9799;48.214;16.388;2023-12-20T12:24:07;8.00;99.90
19330;DHT22;9799;48.214;16.388;2023-12-20T12:27:28;8.00;99.90
19330;DHT22;9799;48.214;16.388;2023-12-20T12:30:58;8.00;99.90
19330;DHT22;9799;48.214;16.388;2023-12-20T12:34:19;8.10;99.90
19330;DHT22;9799;48.214;16.388;2023-12-20T12:37:41;8.10;99.90
19330;DHT22;9799;48.214;16.388;2023-12-20T12:41:03;8.10;99.90
19330;DHT22;9799;48.214;16.388;2023-12-20T12:44:25;8.10;99.90
19330;DHT22;9799;48.214;16.388;2023-12-20T12:47:48;8.10;99.90
19330;DHT22;9799;48.214;16.388;2023-12-20T12:51:12;8.10;99.90
19330;DHT22;9799;48.214;16.388;2023-12-20T12:54:33;8.10;99.90
19330;DHT22;9799;48.214;16.388;2023-12-20T12:57:55;8.10;99.90
19330;DHT22;9799;48.214;16.388;2023-12-20T13:01:16;8.10;99.90
19330;DHT22;9799;48.214;16.388;2023-12-20T13:04:39;8.10;99.90
19330;DHT22;9799;48.214;16.388;2023-12-20T13:08:01;8.10;99.90
19330;DHT22;9799;48.214;16.388;2023-12-20T13:11:22;8.10;99.90
19330;DHT22;9799;48.214;16.388;2023-12-20T13:14:45;8.10;99.90
19330;DHT22;9799;48.214;16.388;2023-12-20T13:18:06;8.10;99.90
19330;DHT22;9799;48.214;16.388;2023-12-20T13:21:29;8.20;99.90
19330;DHT22;9799;48.214;16.388;2023-12-20T13:24:51;8.10;99.90
19330;DHT22;9799;48.214;16.388;2023-12-20T13:28:13;8.20;99.90
19330;DHT22;9799;48.214;16.388;2023-12-20T13:31:37;8.10;99.90
19330;DHT22;9799;48.214;16.388;2023-12-20T13:34:59;8.10;99.90
19330;DHT22;9799;48.214;16.388;2023-12-20T13:38:22;8.00;99.90
19330;DHT22;9799;48.214;16.388;2023-12-20T13:41:43;8.10;99.90
19330;DHT22;9799;48.214;16.388;2023-12-20T13:45:06;8.10;99.90
19330;DHT22;9799;48.214;16.388;2023-12-20T13:48:27;8.00;99.90
19330;DHT22;9799;48.214;16.388;2023-12-20T13:51:49;8.00;99.90
19330;DHT22;9799;48.214;16.388;2023-12-20T13:55:11;8.00;99.90
19330;DHT22;9799;48.214;16.388;2023-12-20T13:58:33;7.90;99.90
19330;DHT22;9799;48.214;16.388;2023-12-20T14:01:54;7.90;99.90
19330;DHT22;9799;48.214;16.388;2023-12-20T14:05:17;8.00;99.90
19330;DHT22;9799;48.214;16.388;2023-12-20T14:08:39;8.00;99.90
19330;DHT22;9799;48.214;16.388;2023-12-20T14:12:01;7.90;99.90
19330;DHT22;9799;48.214;16.388;2023-12-20T14:15:22;7.90;99.90
19330;DHT22;9799;48.214;16.388;2023-12-20T14:18:45;7.90;99.90
19330;DHT22;9799;48.214;16.388;2023-12-20T14:22:06;7.90;99.90
19330;DHT22;9799;48.214;16.388;2023-12-20T14:25:27;7.80;99.90
19330;DHT22;9799;48.214;16.388;2023-12-20T14:28:50;7.80;99.90
19330;DHT22;9799;48.214;16.388;2023-12-20T14:32:11;7.80;99.90
19330;DHT22;9799;48.214;16.388;2023-12-20T14:35:34;7.80;99.90
19330;DHT22;9799;48.214;16.388;2023-12-20T14:38:55;7.90;99.90
19330;DHT22;9799;48.214;16.388;2023-12-20T14:42:16;7.80;99.90
19330;DHT22;9799;48.214;16.388;2023-12-20T14:45:39;7.80;99.90
19330;DHT22;9799;48.214;16.388;2023-12-20T14:49:00;7.90;99.90
19330;DHT22;9799;48.214;16.388;2023-12-20T14:52:22;7.80;99.90
19330;DHT22;9799;48.214;16.388;2023-12-20T14:55:44;7.80;99.90
19330;DHT22;9799;48.214;16.388;2023-12-20T14:59:06;7.80;99.90
19330;DHT22;9799;48.214;16.388;2023-12-20T15:02:29;7.80;99.90
19330;DHT22;9799;48.214;16.388;2023-12-20T15:05:51;7.90;99.90
19330;DHT22;9799;48.214;16.388;2023-12-20T15:09:12;7.80;99.90
19330;DHT22;9799;48.214;16.388;2023-12-20T15:12:34;7.80;99.90
19330;DHT22;9799;48.214;16.388;2023-12-20T15:15:55;7.80;99.90
19330;DHT22;9799;48.214;16.388;2023-12-20T15:19:17;7.80;99.90
19330;DHT22;9799;48.214;16.388;2023-12-20T15:22:39;7.80;99.90
19330;DHT22;9799;48.214;16.388;2023-12-20T15:26:01;7.70;99.90
19330;DHT22;9799;48.214;16.388;2023-12-20T15:29:22;7.70;99.90
19330;DHT22;9799;48.214;16.388;2023-12-20T15:32:44;7.70;99.90
19330;DHT22;9799;48.214;16.388;2023-12-20T15:36:07;7.80;99.90
19330;DHT22;9799;48.214;16.388;2023-12-20T15:39:28;7.90;99.90
19330;DHT22;9799;48.214;16.388;2023-12-20T15:42:50;7.90;99.90
19330;DHT22;9799;48.214;16.388;2023-12-20T15:46:11;7.80;99.90
19330;DHT22;9799;48.214;16.388;2023-12-20T15:49:32;7.80;99.90
19330;DHT22;9799;48.214;16.388;2023-12-20T15:52:55;7.80;99.90
19330;DHT22;9799;48.214;16.388;2023-12-20T15:56:16;7.90;99.90
19330;DHT22;9799;48.214;16.388;2023-12-20T15:59:37;7.80;99.90
19330;DHT22;9799;48.214;16.388;2023-12-20T16:02:58;7.90;99.90
19330;DHT22;9799;48.214;16.388;2023-12-20T16:06:19;7.80;99.90
19330;DHT22;9799;48.214;16.388;2023-12-20T16:09:43;7.80;99.90
19330;DHT22;9799;48.214;16.388;2023-12-20T16:13:04;7.90;99.90
19330;DHT22;9799;48.214;16.388;2023-12-20T16:16:25;7.90;99.90
19330;DHT22;9799;48.214;16.388;2023-12-20T16:19:47;7.80;99.90
19330;DHT22;9799;48.214;16.388;2023-12-20T16:23:08;7.80;99.90
19330;DHT22;9799;48.214;16.388;2023-12-20T16:26:31;7.80;99.90
19330;DHT22;9799;48.214;16.388;2023-12-20T16:29:52;7.70;99.90
19330;DHT22;9799;48.214;16.388;2023-12-20T16:33:13;7.80;99.90
19330;DHT22;9799;48.214;16.388;2023-12-20T16:36:49;7.80;99.90
19330;DHT22;9799;48.214;16.388;2023-12-20T16:40:11;7.80;99.90
19330;DHT22;9799;48.214;16.388;2023-12-20T16:43:34;7.80;99.90
19330;DHT22;9799;48.214;16.388;2023-12-20T16:46:55;7.80;99.90
19330;DHT22;9799;48.214;16.388;2023-12-20T16:50:16;7.80;99.90
19330;DHT22;9799;48.214;16.388;2023-12-20T16:53:38;7.80;99.90
19330;DHT22;9799;48.214;16.388;2023-12-20T16:56:59;7.70;99.90
19330;DHT22;9799;48.214;16.388;2023-12-20T17:00:22;7.70;99.90
19330;DHT22;9799;48.214;16.388;2023-12-20T17:03:43;7.70;99.90
19330;DHT22;9799;48.214;16.388;2023-12-20T17:07:05;7.60;99.90
19330;DHT22;9799;48.214;16.388;2023-12-20T17:10:26;7.70;99.90
19330;DHT22;9799;48.214;16.388;2023-12-20T17:13:47;7.60;99.90
19330;DHT22;9799;48.214;16.388;2023-12-20T17:17:10;7.60;99.90
19330;DHT22;9799;48.214;16.388;2023-12-20T17:20:31;7.60;99.90
19330;DHT22;9799;48.214;16.388;2023-12-20T17:23:52;7.60;99.90
19330;DHT22;9799;48.214;16.388;2023-12-20T17:27:14;7.60;99.90
19330;DHT22;9799;48.214;16.388;2023-12-20T17:30:35;7.70;99.90
19330;DHT22;9799;48.214;16.388;2023-12-20T17:33:58;7.60;99.90
19330;DHT22;9799;48.214;16.388;2023-12-20T17:37:19;7.70;99.90
19330;DHT22;9799;48.214;16.388;2023-12-20T17:40:40;7.70;99.90
19330;DHT22;9799;48.214;16.388;2023-12-20T17:44:02;7.60;99.90
19330;DHT22;9799;48.214;16.388;2023-12-20T17:47:23;7.60;99.90
19330;DHT22;9799;48.214;16.388;2023-12-20T17:50:45;7.50;99.90
19330;DHT22;9799;48.214;16.388;2023-12-20T17:54:07;7.50;99.90
19330;DHT22;9799;48.214;16.388;2023-12-20T17:57:28;7.40;99.90
19330;DHT22;9799;48.214;16.388;2023-12-20T18:00:49;7.40;99.90
19330;DHT22;9799;48.214;16.388;2023-12-20T18:04:11;7.40;99.90
19330;DHT22;9799;48.214;16.388;2023-12-20T18:07:35;7.30;99.90
19330;DHT22;9799;48.214;16.388;2023-12-20T18:10:58;7.20;99.90
19330;DHT22;9799;48.214;16.388;2023-12-20T18:14:21;7.20;99.90
19330;DHT22;9799;48.214;16.388;2023-12-20T18:17:44;7.20;99.90
19330;DHT22;9799;48.214;16.388;2023-12-20T18:21:06;7.20;99.90
19330;DHT22;9799;48.214;16.388;2023-12-20T18:24:30;7.10;99.90
19330;DHT22;9799;48.214;16.388;2023-12-20T18:27:53;7.10;99.90
19330;DHT22;9799;48.214;16.388;2023-12-20T18:31:15;7.10;99.90
19330;DHT22;9799;48.214;16.388;2023-12-20T18:34:38;7.10;99.90
19330;DHT22;9799;48.214;16.388;2023-12-20T18:38:01;7.10;99.90
19330;DHT22;9799;48.214;16.388;2023-12-20T18:41:25;7.20;99.90
19330;DHT22;9799;48.214;16.388;2023-12-20T18:44:48;7.10;99.90
19330;DHT22;9799;48.214;16.388;2023-12-20T18:48:10;7.10;99.90
19330;DHT22;9799;48.214;16.388;2023-12-20T18:51:35;7.10;99.90
19330;DHT22;9799;48.214;16.388;2023-12-20T18:54:57;7.10;99.90
19330;DHT22;9799;48.214;16.388;2023-12-20T18:58:22;7.10;99.90
19330;DHT22;9799;48.214;16.388;2023-12-20T19:01:48;7.00;99.90
19330;DHT22;9799;48.214;16.388;2023-12-20T19:05:11;7.00;99.90
19330;DHT22;9799;48.214;16.388;2023-12-20T19:08:35;7.00;99.90
19330;DHT22;9799;48.214;16.388;2023-12-20T19:12:00;7.00;99.90
19330;DHT22;9799;48.214;16.388;2023-12-20T19:15:25;7.00;99.90
19330;DHT22;9799;48.214;16.388;2023-12-20T19:18:48;6.90;99.90
19330;DHT22;9799;48.214;16.388;2023-12-20T19:22:11;6.90;99.90
19330;DHT22;9799;48.214;16.388;2023-12-20T19:25:35;6.90;99.90
19330;DHT22;9799;48.214;16.388;2023-12-20T19:28:58;6.90;99.90
19330;DHT22;9799;48.214;16.388;2023-12-20T19:32:23;6.90;99.90
19330;DHT22;9799;48.214;16.388;2023-12-20T19:35:46;6.90;99.90
19330;DHT22;9799;48.214;16.388;2023-12-20T19:39:10;6.90;99.90
19330;DHT22;9799;48.214;16.388;2023-12-20T19:42:33;6.90;99.90
19330;DHT22;9799;48.214;16.388;2023-12-20T19:45:58;6.90;99.90
19330;DHT22;9799;48.214;16.388;2023-12-20T19:49:23;6.90;99.90
19330;DHT22;9799;48.214;16.388;2023-12-20T19:52:46;6.90;99.90
19330;DHT22;9799;48.214;16.388;2023-12-20T19:56:09;6.90;99.90
19330;DHT22;9799;48.214;16.388;2023-12-20T19:59:33;7.00;99.90
19330;DHT22;9799;48.214;16.388;2023-12-20T20:02:56;7.00;99.90
19330;DHT22;9799;48.214;16.388;2023-12-20T20:06:21;7.00;99.90
19330;DHT22;9799;48.214;16.388;2023-12-20T20:09:45;7.00;99.90
19330;DHT22;9799;48.214;16.388;2023-12-20T20:13:11;7.00;99.90
19330;DHT22;9799;48.214;16.388;2023-12-20T20:16:36;6.90;99.90
19330;DHT22;9799;48.214;16.388;2023-12-20T20:20:00;7.00;99.90
19330;DHT22;9799;48.214;16.388;2023-12-20T20:23:25;7.00;99.90
19330;DHT22;9799;48.214;16.388;2023-12-20T20:26:48;6.90;99.90
19330;DHT22;9799;48.214;16.388;2023-12-20T20:30:12;6.90;99.90
19330;DHT22;9799;48.214;16.388;2023-12-20T20:33:36;7.00;99.90
19330;DHT22;9799;48.214;16.388;2023-12-20T20:36:59;6.90;99.90
19330;DHT22;9799;48.214;16.388;2023-12-20T20:40:23;7.00;99.90
19330;DHT22;9799;48.214;16.388;2023-12-20T20:43:47;7.00;99.90
19330;DHT22;9799;48.214;16.388;2023-12-20T20:47:09;6.90;99.90
19330;DHT22;9799;48.214;16.388;2023-12-20T20:50:33;6.90;99.90
19330;DHT22;9799;48.214;16.388;2023-12-20T20:53:56;7.00;99.90
19330;DHT22;9799;48.214;16.388;2023-12-20T20:57:21;7.00;99.90
19330;DHT22;9799;48.214;16.388;2023-12-20T21:00:43;6.90;99.90
19330;DHT22;9799;48.214;16.388;2023-12-20T21:04:04;6.90;99.90
19330;DHT22;9799;48.214;16.388;2023-12-20T21:07:25;6.90;99.90
19330;DHT22;9799;48.214;16.388;2023-12-20T21:10:46;6.90;99.90
19330;DHT22;9799;48.214;16.388;2023-12-20T21:14:10;6.90;99.90
19330;DHT22;9799;48.214;16.388;2023-12-20T21:17:31;6.90;99.90
19330;DHT22;9799;48.214;16.388;2023-12-20T21:20:53;6.90;99.90
19330;DHT22;9799;48.214;16.388;2023-12-20T21:24:14;6.90;99.90
19330;DHT22;9799;48.214;16.388;2023-12-20T21:27:35;6.90;99.90
19330;DHT22;9799;48.214;16.388;2023-12-20T21:31:00;7.00;99.90
19330;DHT22;9799;48.214;16.388;2023-12-20T21:34:21;6.90;99.90
19330;DHT22;9799;48.214;16.388;2023-12-20T21:37:42;7.00;99.90